sensor_id;sensor_type;location;lat;lon;timestamp;P1;durP1;ratioP1;P2;durP2;ratioP2
14294;SDS011;7231;59.370;18.016;2023-03-30T00:02:21;3.53;;;1.70;;
14294;SDS011;7231;59.370;18.016;2023-03-30T00:04:51;3.63;;;2.13;;
14294;SDS011;7231;59.370;18.016;2023-03-30T00:07:19;2.80;;;1.60;;
14294;SDS011;7231;59.370;18.016;2023-03-30T00:09:47;3.83;;;2.03;;
14294;SDS011;7231;59.370;18.016;2023-03-30T00:12:15;3.53;;;1.53;;
14294;SDS011;7231;59.370;18.016;2023-03-30T00:14:46;4.37;;;1.77;;
14294;SDS011;7231;59.370;18.016;2023-03-30T00:17:14;3.50;;;1.90;;
14294;SDS011;7231;59.370;18.016;2023-03-30T00:19:43;2.40;;;2.03;;
14294;SDS011;7231;59.370;18.016;2023-03-30T00:22:12;6.67;;;2.07;;
14294;SDS011;7231;59.370;18.016;2023-03-30T00:24:40;4.00;;;1.63;;
14294;SDS011;7231;59.370;18.016;2023-03-30T00:27:08;4.03;;;1.90;;
14294;SDS011;7231;59.370;18.016;2023-03-30T00:29:36;3.43;;;1.60;;
14294;SDS011;7231;59.370;18.016;2023-03-30T00:32:04;3.10;;;1.40;;
14294;SDS011;7231;59.370;18.016;2023-03-30T00:34:33;3.90;;;1.50;;
14294;SDS011;7231;59.370;18.016;2023-03-30T00:37:01;3.40;;;1.63;;
14294;SDS011;7231;59.370;18.016;2023-03-30T00:39:33;2.40;;;1.50;;
14294;SDS011;7231;59.370;18.016;2023-03-30T00:42:02;2.70;;;1.30;;
14294;SDS011;7231;59.370;18.016;2023-03-30T00:47:37;3.53;;;1.60;;
14294;SDS011;7231;59.370;18.016;2023-03-30T00:50:11;2.47;;;1.60;;
14294;SDS011;7231;59.370;18.016;2023-03-30T00:52:40;2.67;;;1.67;;
14294;SDS011;7231;59.370;18.016;2023-03-30T00:55:13;3.17;;;1.60;;
14294;SDS011;7231;59.370;18.016;2023-03-30T00:57:45;3.40;;;1.43;;
14294;SDS011;7231;59.370;18.016;2023-03-30T01:00:17;2.10;;;1.40;;
14294;SDS011;7231;59.370;18.016;2023-03-30T01:02:48;2.13;;;1.40;;
14294;SDS011;7231;59.370;18.016;2023-03-30T01:05:22;1.97;;;1.47;;
14294;SDS011;7231;59.370;18.016;2023-03-30T01:07:51;3.20;;;1.60;;
14294;SDS011;7231;59.370;18.016;2023-03-30T01:10:21;1.80;;;1.30;;
14294;SDS011;7231;59.370;18.016;2023-03-30T01:12:51;3.73;;;1.30;;
14294;SDS011;7231;59.370;18.016;2023-03-30T01:15:20;2.90;;;1.50;;
14294;SDS011;7231;59.370;18.016;2023-03-30T01:17:59;2.50;;;1.60;;
14294;SDS011;7231;59.370;18.016;2023-03-30T01:20:42;5.00;;;1.57;;
14294;SDS011;7231;59.370;18.016;2023-03-30T01:26:49;3.80;;;1.30;;
14294;SDS011;7231;59.370;18.016;2023-03-30T01:29:38;3.40;;;1.60;;
14294;SDS011;7231;59.370;18.016;2023-03-30T01:32:51;3.90;;;1.70;;
14294;SDS011;7231;59.370;18.016;2023-03-30T01:35:51;3.33;;;1.37;;
14294;SDS011;7231;59.370;18.016;2023-03-30T01:41:38;3.67;;;1.43;;
14294;SDS011;7231;59.370;18.016;2023-03-30T01:44:15;2.17;;;1.23;;
14294;SDS011;7231;59.370;18.016;2023-03-30T01:46:51;2.70;;;1.40;;
14294;SDS011;7231;59.370;18.016;2023-03-30T01:49:26;2.10;;;1.60;;
14294;SDS011;7231;59.370;18.016;2023-03-30T01:52:00;1.97;;;1.33;;
14294;SDS011;7231;59.370;18.016;2023-03-30T01:54:33;3.23;;;1.50;;
14294;SDS011;7231;59.370;18.016;2023-03-30T01:57:08;2.00;;;1.30;;
14294;SDS011;7231;59.370;18.016;2023-03-30T01:59:42;3.60;;;2.00;;
14294;SDS011;7231;59.370;18.016;2023-03-30T02:02:16;3.00;;;1.57;;
14294;SDS011;7231;59.370;18.016;2023-03-30T02:04:47;3.23;;;1.53;;
14294;SDS011;7231;59.370;18.016;2023-03-30T02:07:21;2.17;;;1.40;;
14294;SDS011;7231;59.370;18.016;2023-03-30T02:09:54;4.50;;;1.53;;
14294;SDS011;7231;59.370;18.016;2023-03-30T02:12:29;4.23;;;1.43;;
14294;SDS011;7231;59.370;18.016;2023-03-30T02:15:00;2.37;;;1.50;;
14294;SDS011;7231;59.370;18.016;2023-03-30T02:17:30;2.63;;;1.27;;
14294;SDS011;7231;59.370;18.016;2023-03-30T02:19:59;1.13;;;1.00;;
14294;SDS011;7231;59.370;18.016;2023-03-30T02:22:28;1.97;;;1.43;;
14294;SDS011;7231;59.370;18.016;2023-03-30T02:24:57;1.80;;;1.20;;
14294;SDS011;7231;59.370;18.016;2023-03-30T02:27:26;1.47;;;1.27;;
14294;SDS011;7231;59.370;18.016;2023-03-30T02:29:57;4.50;;;1.50;;
14294;SDS011;7231;59.370;18.016;2023-03-30T02:32:26;2.07;;;1.47;;
14294;SDS011;7231;59.370;18.016;2023-03-30T02:35:12;4.90;;;1.27;;
14294;SDS011;7231;59.370;18.016;2023-03-30T02:37:56;2.67;;;1.50;;
14294;SDS011;7231;59.370;18.016;2023-03-30T02:40:43;2.33;;;1.30;;
14294;SDS011;7231;59.370;18.016;2023-03-30T02:43:25;2.10;;;1.40;;
14294;SDS011;7231;59.370;18.016;2023-03-30T02:46:09;3.33;;;1.57;;
14294;SDS011;7231;59.370;18.016;2023-03-30T02:48:53;2.23;;;1.40;;
14294;SDS011;7231;59.370;18.016;2023-03-30T02:51:32;3.03;;;1.40;;
14294;SDS011;7231;59.370;18.016;2023-03-30T02:54:10;3.13;;;1.50;;
14294;SDS011;7231;59.370;18.016;2023-03-30T02:56:51;4.23;;;1.37;;
14294;SDS011;7231;59.370;18.016;2023-03-30T02:59:32;2.77;;;1.47;;
14294;SDS011;7231;59.370;18.016;2023-03-30T03:02:04;1.80;;;1.13;;
14294;SDS011;7231;59.370;18.016;2023-03-30T03:04:40;1.83;;;1.30;;
14294;SDS011;7231;59.370;18.016;2023-03-30T03:07:11;2.23;;;1.40;;
14294;SDS011;7231;59.370;18.016;2023-03-30T03:09:42;3.43;;;1.70;;
14294;SDS011;7231;59.370;18.016;2023-03-30T03:12:10;3.30;;;1.40;;
14294;SDS011;7231;59.370;18.016;2023-03-30T03:14:39;1.90;;;1.23;;
14294;SDS011;7231;59.370;18.016;2023-03-30T03:17:08;2.90;;;1.20;;
14294;SDS011;7231;59.370;18.016;2023-03-30T03:19:39;1.87;;;1.33;;
14294;SDS011;7231;59.370;18.016;2023-03-30T03:22:08;1.60;;;1.17;;
14294;SDS011;7231;59.370;18.016;2023-03-30T03:24:36;4.63;;;1.60;;
14294;SDS011;7231;59.370;18.016;2023-03-30T03:27:06;1.53;;;1.27;;
14294;SDS011;7231;59.370;18.016;2023-03-30T03:29:34;3.27;;;1.40;;
14294;SDS011;7231;59.370;18.016;2023-03-30T03:32:07;2.47;;;1.20;;
14294;SDS011;7231;59.370;18.016;2023-03-30T03:34:35;5.27;;;1.37;;
14294;SDS011;7231;59.370;18.016;2023-03-30T03:37:05;3.13;;;1.50;;
14294;SDS011;7231;59.370;18.016;2023-03-30T03:39:33;2.53;;;1.07;;
14294;SDS011;7231;59.370;18.016;2023-03-30T03:42:03;3.00;;;1.20;;
14294;SDS011;7231;59.370;18.016;2023-03-30T03:44:31;2.20;;;1.40;;
14294;SDS011;7231;59.370;18.016;2023-03-30T03:47:00;2.57;;;1.67;;
14294;SDS011;7231;59.370;18.016;2023-03-30T03:49:29;3.67;;;1.37;;
14294;SDS011;7231;59.370;18.016;2023-03-30T03:51:57;2.40;;;1.20;;
14294;SDS011;7231;59.370;18.016;2023-03-30T03:54:25;2.23;;;1.13;;
14294;SDS011;7231;59.370;18.016;2023-03-30T03:56:54;5.30;;;1.80;;
14294;SDS011;7231;59.370;18.016;2023-03-30T03:59:22;2.30;;;1.30;;
14294;SDS011;7231;59.370;18.016;2023-03-30T04:01:51;2.00;;;1.20;;
14294;SDS011;7231;59.370;18.016;2023-03-30T04:04:19;2.27;;;1.37;;
14294;SDS011;7231;59.370;18.016;2023-03-30T04:06:51;1.83;;;1.20;;
14294;SDS011;7231;59.370;18.016;2023-03-30T04:09:19;1.07;;;0.87;;
14294;SDS011;7231;59.370;18.016;2023-03-30T04:11:48;2.23;;;1.30;;
14294;SDS011;7231;59.370;18.016;2023-03-30T04:14:17;3.00;;;1.20;;
14294;SDS011;7231;59.370;18.016;2023-03-30T04:16:45;2.50;;;1.27;;
14294;SDS011;7231;59.370;18.016;2023-03-30T04:19:14;2.30;;;1.57;;
14294;SDS011;7231;59.370;18.016;2023-03-30T04:21:43;2.50;;;1.17;;
14294;SDS011;7231;59.370;18.016;2023-03-30T04:24:13;2.17;;;1.20;;
14294;SDS011;7231;59.370;18.016;2023-03-30T04:26:43;3.23;;;1.67;;
14294;SDS011;7231;59.370;18.016;2023-03-30T04:29:14;2.57;;;1.30;;
14294;SDS011;7231;59.370;18.016;2023-03-30T04:31:44;7.23;;;1.80;;
14294;SDS011;7231;59.370;18.016;2023-03-30T04:34:16;1.67;;;1.03;;
14294;SDS011;7231;59.370;18.016;2023-03-30T04:36:47;1.40;;;1.13;;
14294;SDS011;7231;59.370;18.016;2023-03-30T04:39:16;3.47;;;1.37;;
14294;SDS011;7231;59.370;18.016;2023-03-30T04:41:46;3.17;;;1.60;;
14294;SDS011;7231;59.370;18.016;2023-03-30T04:44:16;1.80;;;1.20;;
14294;SDS011;7231;59.370;18.016;2023-03-30T04:46:46;3.63;;;1.60;;
14294;SDS011;7231;59.370;18.016;2023-03-30T04:49:14;2.30;;;1.53;;
14294;SDS011;7231;59.370;18.016;2023-03-30T04:51:42;2.77;;;1.40;;
14294;SDS011;7231;59.370;18.016;2023-03-30T04:54:13;1.63;;;1.20;;
14294;SDS011;7231;59.370;18.016;2023-03-30T04:56:43;5.13;;;1.50;;
14294;SDS011;7231;59.370;18.016;2023-03-30T04:59:11;3.70;;;1.63;;
14294;SDS011;7231;59.370;18.016;2023-03-30T05:01:41;2.47;;;1.50;;
14294;SDS011;7231;59.370;18.016;2023-03-30T05:04:13;1.37;;;1.10;;
14294;SDS011;7231;59.370;18.016;2023-03-30T05:06:43;3.50;;;1.50;;
14294;SDS011;7231;59.370;18.016;2023-03-30T05:09:11;1.70;;;1.30;;
14294;SDS011;7231;59.370;18.016;2023-03-30T05:11:40;4.00;;;1.40;;
14294;SDS011;7231;59.370;18.016;2023-03-30T05:14:09;2.73;;;1.30;;
14294;SDS011;7231;59.370;18.016;2023-03-30T05:16:38;3.67;;;1.60;;
14294;SDS011;7231;59.370;18.016;2023-03-30T05:19:06;1.60;;;1.30;;
14294;SDS011;7231;59.370;18.016;2023-03-30T05:21:35;2.23;;;1.30;;
14294;SDS011;7231;59.370;18.016;2023-03-30T05:24:03;2.00;;;1.40;;
14294;SDS011;7231;59.370;18.016;2023-03-30T05:26:32;2.50;;;1.50;;
14294;SDS011;7231;59.370;18.016;2023-03-30T05:29:00;3.30;;;1.37;;
14294;SDS011;7231;59.370;18.016;2023-03-30T05:31:29;6.27;;;1.50;;
14294;SDS011;7231;59.370;18.016;2023-03-30T05:33:58;3.40;;;1.40;;
14294;SDS011;7231;59.370;18.016;2023-03-30T05:36:26;3.97;;;1.50;;
14294;SDS011;7231;59.370;18.016;2023-03-30T05:38:54;2.33;;;1.40;;
14294;SDS011;7231;59.370;18.016;2023-03-30T05:41:23;3.97;;;1.63;;
14294;SDS011;7231;59.370;18.016;2023-03-30T05:43:53;2.63;;;1.60;;
14294;SDS011;7231;59.370;18.016;2023-03-30T05:46:21;3.73;;;1.40;;
14294;SDS011;7231;59.370;18.016;2023-03-30T05:48:51;1.77;;;1.30;;
14294;SDS011;7231;59.370;18.016;2023-03-30T05:51:19;3.80;;;1.80;;
14294;SDS011;7231;59.370;18.016;2023-03-30T05:53:47;4.60;;;1.10;;
14294;SDS011;7231;59.370;18.016;2023-03-30T05:56:15;4.47;;;1.50;;
14294;SDS011;7231;59.370;18.016;2023-03-30T05:58:43;3.53;;;1.70;;
14294;SDS011;7231;59.370;18.016;2023-03-30T06:01:11;3.07;;;1.73;;
14294;SDS011;7231;59.370;18.016;2023-03-30T06:03:44;1.67;;;1.10;;
14294;SDS011;7231;59.370;18.016;2023-03-30T06:06:14;2.97;;;1.37;;
14294;SDS011;7231;59.370;18.016;2023-03-30T06:08:44;2.93;;;1.70;;
14294;SDS011;7231;59.370;18.016;2023-03-30T06:11:13;4.23;;;1.40;;
14294;SDS011;7231;59.370;18.016;2023-03-30T06:13:42;2.43;;;1.20;;
14294;SDS011;7231;59.370;18.016;2023-03-30T06:16:10;3.97;;;1.30;;
14294;SDS011;7231;59.370;18.016;2023-03-30T06:18:38;1.97;;;1.13;;
14294;SDS011;7231;59.370;18.016;2023-03-30T06:21:08;4.43;;;1.60;;
14294;SDS011;7231;59.370;18.016;2023-03-30T06:23:38;1.47;;;1.00;;
14294;SDS011;7231;59.370;18.016;2023-03-30T06:26:08;1.77;;;1.23;;
14294;SDS011;7231;59.370;18.016;2023-03-30T06:28:36;1.37;;;1.20;;
14294;SDS011;7231;59.370;18.016;2023-03-30T06:31:08;3.80;;;1.30;;
14294;SDS011;7231;59.370;18.016;2023-03-30T06:33:37;4.13;;;1.73;;
14294;SDS011;7231;59.370;18.016;2023-03-30T06:36:08;2.33;;;1.73;;
14294;SDS011;7231;59.370;18.016;2023-03-30T06:38:40;3.97;;;1.60;;
14294;SDS011;7231;59.370;18.016;2023-03-30T06:41:09;1.17;;;0.97;;
14294;SDS011;7231;59.370;18.016;2023-03-30T06:43:38;2.63;;;1.40;;
14294;SDS011;7231;59.370;18.016;2023-03-30T06:46:07;13.60;;;1.73;;
14294;SDS011;7231;59.370;18.016;2023-03-30T06:48:38;3.97;;;1.37;;
14294;SDS011;7231;59.370;18.016;2023-03-30T06:51:07;4.17;;;1.53;;
14294;SDS011;7231;59.370;18.016;2023-03-30T06:53:37;2.80;;;1.13;;
14294;SDS011;7231;59.370;18.016;2023-03-30T06:56:06;1.53;;;1.30;;
14294;SDS011;7231;59.370;18.016;2023-03-30T06:58:35;2.27;;;1.53;;
14294;SDS011;7231;59.370;18.016;2023-03-30T07:01:07;1.40;;;1.30;;
14294;SDS011;7231;59.370;18.016;2023-03-30T07:03:37;1.60;;;1.17;;
14294;SDS011;7231;59.370;18.016;2023-03-30T07:06:06;3.07;;;1.53;;
14294;SDS011;7231;59.370;18.016;2023-03-30T07:08:35;3.00;;;1.60;;
14294;SDS011;7231;59.370;18.016;2023-03-30T07:11:06;1.90;;;1.40;;
14294;SDS011;7231;59.370;18.016;2023-03-30T07:13:34;4.13;;;1.50;;
14294;SDS011;7231;59.370;18.016;2023-03-30T07:16:03;2.47;;;1.40;;
14294;SDS011;7231;59.370;18.016;2023-03-30T07:18:33;3.53;;;1.30;;
14294;SDS011;7231;59.370;18.016;2023-03-30T07:21:01;7.63;;;1.57;;
14294;SDS011;7231;59.370;18.016;2023-03-30T07:23:30;3.53;;;1.50;;
14294;SDS011;7231;59.370;18.016;2023-03-30T07:25:58;3.43;;;1.70;;
14294;SDS011;7231;59.370;18.016;2023-03-30T07:28:28;6.10;;;1.60;;
14294;SDS011;7231;59.370;18.016;2023-03-30T07:31:01;4.60;;;1.50;;
14294;SDS011;7231;59.370;18.016;2023-03-30T07:33:35;2.67;;;1.40;;
14294;SDS011;7231;59.370;18.016;2023-03-30T07:36:03;3.80;;;1.50;;
14294;SDS011;7231;59.370;18.016;2023-03-30T07:38:32;3.47;;;1.33;;
14294;SDS011;7231;59.370;18.016;2023-03-30T07:41:00;12.93;;;2.00;;
14294;SDS011;7231;59.370;18.016;2023-03-30T07:43:35;5.57;;;1.67;;
14294;SDS011;7231;59.370;18.016;2023-03-30T07:46:03;2.30;;;1.13;;
14294;SDS011;7231;59.370;18.016;2023-03-30T07:48:31;4.53;;;1.27;;
14294;SDS011;7231;59.370;18.016;2023-03-30T07:51:00;4.93;;;1.37;;
14294;SDS011;7231;59.370;18.016;2023-03-30T07:53:30;2.23;;;1.30;;
14294;SDS011;7231;59.370;18.016;2023-03-30T07:55:58;2.23;;;1.20;;
14294;SDS011;7231;59.370;18.016;2023-03-30T07:58:27;2.37;;;1.10;;
14294;SDS011;7231;59.370;18.016;2023-03-30T08:00:57;2.80;;;1.20;;
14294;SDS011;7231;59.370;18.016;2023-03-30T08:03:29;5.00;;;1.30;;
14294;SDS011;7231;59.370;18.016;2023-03-30T08:05:59;2.00;;;1.00;;
14294;SDS011;7231;59.370;18.016;2023-03-30T08:08:42;1.73;;;1.10;;
14294;SDS011;7231;59.370;18.016;2023-03-30T08:11:11;2.20;;;1.30;;
14294;SDS011;7231;59.370;18.016;2023-03-30T08:13:41;3.47;;;1.10;;
14294;SDS011;7231;59.370;18.016;2023-03-30T08:16:11;3.93;;;1.03;;
14294;SDS011;7231;59.370;18.016;2023-03-30T08:18:39;5.57;;;1.33;;
14294;SDS011;7231;59.370;18.016;2023-03-30T08:21:08;2.57;;;0.90;;
14294;SDS011;7231;59.370;18.016;2023-03-30T08:23:36;1.93;;;0.90;;
14294;SDS011;7231;59.370;18.016;2023-03-30T08:26:04;2.47;;;1.07;;
14294;SDS011;7231;59.370;18.016;2023-03-30T08:28:33;3.30;;;0.80;;
14294;SDS011;7231;59.370;18.016;2023-03-30T08:31:02;4.47;;;1.07;;
14294;SDS011;7231;59.370;18.016;2023-03-30T08:33:34;1.70;;;0.80;;
14294;SDS011;7231;59.370;18.016;2023-03-30T08:36:03;5.23;;;1.00;;
14294;SDS011;7231;59.370;18.016;2023-03-30T08:38:32;1.63;;;0.83;;
14294;SDS011;7231;59.370;18.016;2023-03-30T08:40:59;1.10;;;0.70;;
14294;SDS011;7231;59.370;18.016;2023-03-30T08:43:37;3.40;;;1.00;;
14294;SDS011;7231;59.370;18.016;2023-03-30T08:46:14;1.37;;;0.60;;
14294;SDS011;7231;59.370;18.016;2023-03-30T08:48:46;2.20;;;1.03;;
14294;SDS011;7231;59.370;18.016;2023-03-30T08:51:18;0.95;;;0.80;;
14294;SDS011;7231;59.370;18.016;2023-03-30T08:53:50;1.27;;;0.70;;
14294;SDS011;7231;59.370;18.016;2023-03-30T08:56:23;2.10;;;0.70;;
14294;SDS011;7231;59.370;18.016;2023-03-30T08:58:59;1.40;;;0.60;;
14294;SDS011;7231;59.370;18.016;2023-03-30T09:01:36;1.92;;;0.82;;
14294;SDS011;7231;59.370;18.016;2023-03-30T09:04:17;1.47;;;0.80;;
14294;SDS011;7231;59.370;18.016;2023-03-30T09:06:54;1.35;;;0.90;;
14294;SDS011;7231;59.370;18.016;2023-03-30T09:09:29;0.50;;;0.50;;
14294;SDS011;7231;59.370;18.016;2023-03-30T09:12:01;3.88;;;1.20;;
14294;SDS011;7231;59.370;18.016;2023-03-30T09:14:35;3.92;;;1.48;;
14294;SDS011;7231;59.370;18.016;2023-03-30T09:17:07;2.30;;;0.70;;
14294;SDS011;7231;59.370;18.016;2023-03-30T09:19:49;2.60;;;0.73;;
14294;SDS011;7231;59.370;18.016;2023-03-30T09:22:23;1.15;;;0.60;;
14294;SDS011;7231;59.370;18.016;2023-03-30T09:25:00;0.70;;;0.65;;
14294;SDS011;7231;59.370;18.016;2023-03-30T09:27:31;2.40;;;0.90;;
14294;SDS011;7231;59.370;18.016;2023-03-30T09:30:14;1.08;;;0.60;;
14294;SDS011;7231;59.370;18.016;2023-03-30T09:32:48;1.35;;;0.60;;
14294;SDS011;7231;59.370;18.016;2023-03-30T09:35:27;1.70;;;0.65;;
14294;SDS011;7231;59.370;18.016;2023-03-30T09:38:01;2.50;;;1.38;;
14294;SDS011;7231;59.370;18.016;2023-03-30T09:40:36;4.88;;;1.10;;
14294;SDS011;7231;59.370;18.016;2023-03-30T09:43:39;2.17;;;0.93;;
14294;SDS011;7231;59.370;18.016;2023-03-30T09:46:09;2.60;;;0.80;;
14294;SDS011;7231;59.370;18.016;2023-03-30T09:48:49;2.88;;;1.42;;
14294;SDS011;7231;59.370;18.016;2023-03-30T09:51:19;4.55;;;2.08;;
14294;SDS011;7231;59.370;18.016;2023-03-30T09:53:50;2.78;;;0.95;;
14294;SDS011;7231;59.370;18.016;2023-03-30T09:56:25;2.05;;;0.60;;
14294;SDS011;7231;59.370;18.016;2023-03-30T09:58:54;1.92;;;0.73;;
14294;SDS011;7231;59.370;18.016;2023-03-30T10:01:22;1.98;;;0.80;;
14294;SDS011;7231;59.370;18.016;2023-03-30T10:04:04;1.95;;;1.05;;
14294;SDS011;7231;59.370;18.016;2023-03-30T10:06:43;2.15;;;1.33;;
14294;SDS011;7231;59.370;18.016;2023-03-30T10:09:13;2.63;;;1.25;;
14294;SDS011;7231;59.370;18.016;2023-03-30T10:11:42;3.17;;;1.35;;
14294;SDS011;7231;59.370;18.016;2023-03-30T10:14:18;4.13;;;1.30;;
14294;SDS011;7231;59.370;18.016;2023-03-30T10:16:54;1.92;;;1.00;;
14294;SDS011;7231;59.370;18.016;2023-03-30T10:19:23;5.22;;;1.35;;
14294;SDS011;7231;59.370;18.016;2023-03-30T10:21:53;3.22;;;0.93;;
14294;SDS011;7231;59.370;18.016;2023-03-30T10:24:24;4.70;;;0.88;;
14294;SDS011;7231;59.370;18.016;2023-03-30T10:26:57;1.15;;;0.80;;
14294;SDS011;7231;59.370;18.016;2023-03-30T10:29:31;1.30;;;0.68;;
14294;SDS011;7231;59.370;18.016;2023-03-30T10:32:00;4.47;;;1.05;;
14294;SDS011;7231;59.370;18.016;2023-03-30T10:34:35;1.63;;;0.80;;
14294;SDS011;7231;59.370;18.016;2023-03-30T10:37:08;1.30;;;0.75;;
14294;SDS011;7231;59.370;18.016;2023-03-30T10:39:39;3.72;;;1.13;;
14294;SDS011;7231;59.370;18.016;2023-03-30T10:42:13;2.22;;;0.80;;
14294;SDS011;7231;59.370;18.016;2023-03-30T10:44:45;3.38;;;0.90;;
14294;SDS011;7231;59.370;18.016;2023-03-30T10:47:20;2.35;;;0.90;;
14294;SDS011;7231;59.370;18.016;2023-03-30T10:50:09;2.85;;;0.90;;
14294;SDS011;7231;59.370;18.016;2023-03-30T10:52:48;1.33;;;0.90;;
14294;SDS011;7231;59.370;18.016;2023-03-30T10:55:27;2.80;;;1.00;;
14294;SDS011;7231;59.370;18.016;2023-03-30T10:58:03;3.13;;;0.90;;
14294;SDS011;7231;59.370;18.016;2023-03-30T11:00:46;1.85;;;0.98;;
14294;SDS011;7231;59.370;18.016;2023-03-30T11:03:23;2.92;;;1.00;;
14294;SDS011;7231;59.370;18.016;2023-03-30T11:05:55;0.80;;;0.80;;
14294;SDS011;7231;59.370;18.016;2023-03-30T11:08:31;2.17;;;1.35;;
14294;SDS011;7231;59.370;18.016;2023-03-30T11:11:03;2.28;;;1.15;;
14294;SDS011;7231;59.370;18.016;2023-03-30T11:13:34;2.30;;;1.05;;
14294;SDS011;7231;59.370;18.016;2023-03-30T11:16:08;3.67;;;1.10;;
14294;SDS011;7231;59.370;18.016;2023-03-30T11:18:42;7.63;;;1.20;;
14294;SDS011;7231;59.370;18.016;2023-03-30T11:21:18;2.92;;;0.77;;
14294;SDS011;7231;59.370;18.016;2023-03-30T11:23:50;1.63;;;0.90;;
14294;SDS011;7231;59.370;18.016;2023-03-30T11:26:21;4.55;;;1.35;;
14294;SDS011;7231;59.370;18.016;2023-03-30T11:28:58;6.63;;;1.30;;
14294;SDS011;7231;59.370;18.016;2023-03-30T11:31:38;3.33;;;1.30;;
14294;SDS011;7231;59.370;18.016;2023-03-30T11:34:18;1.43;;;0.80;;
14294;SDS011;7231;59.370;18.016;2023-03-30T11:36:58;3.40;;;1.13;;
14294;SDS011;7231;59.370;18.016;2023-03-30T11:39:32;3.33;;;1.00;;
14294;SDS011;7231;59.370;18.016;2023-03-30T11:42:06;2.37;;;0.67;;
14294;SDS011;7231;59.370;18.016;2023-03-30T11:44:41;1.55;;;0.90;;
14294;SDS011;7231;59.370;18.016;2023-03-30T11:47:23;3.00;;;1.30;;
14294;SDS011;7231;59.370;18.016;2023-03-30T11:50:16;1.27;;;0.93;;
14294;SDS011;7231;59.370;18.016;2023-03-30T11:52:58;2.90;;;1.17;;
14294;SDS011;7231;59.370;18.016;2023-03-30T11:55:46;2.90;;;1.20;;
14294;SDS011;7231;59.370;18.016;2023-03-30T11:58:24;2.03;;;1.30;;
14294;SDS011;7231;59.370;18.016;2023-03-30T12:01:01;2.67;;;1.33;;
14294;SDS011;7231;59.370;18.016;2023-03-30T12:03:40;2.43;;;0.90;;
14294;SDS011;7231;59.370;18.016;2023-03-30T12:06:23;2.53;;;1.20;;
14294;SDS011;7231;59.370;18.016;2023-03-30T12:09:08;1.93;;;1.20;;
14294;SDS011;7231;59.370;18.016;2023-03-30T12:11:56;6.00;;;1.10;;
14294;SDS011;7231;59.370;18.016;2023-03-30T12:14:46;2.50;;;1.33;;
14294;SDS011;7231;59.370;18.016;2023-03-30T12:17:23;2.37;;;0.90;;
14294;SDS011;7231;59.370;18.016;2023-03-30T12:20:01;3.27;;;0.87;;
14294;SDS011;7231;59.370;18.016;2023-03-30T12:22:37;1.97;;;0.70;;
14294;SDS011;7231;59.370;18.016;2023-03-30T12:25:15;1.27;;;1.00;;
14294;SDS011;7231;59.370;18.016;2023-03-30T12:27:58;4.33;;;0.90;;
14294;SDS011;7231;59.370;18.016;2023-03-30T12:30:39;1.27;;;0.90;;
14294;SDS011;7231;59.370;18.016;2023-03-30T12:33:10;1.63;;;0.80;;
14294;SDS011;7231;59.370;18.016;2023-03-30T12:35:53;1.90;;;1.00;;
14294;SDS011;7231;59.370;18.016;2023-03-30T12:38:24;2.73;;;1.13;;
14294;SDS011;7231;59.370;18.016;2023-03-30T12:41:01;2.43;;;1.20;;
14294;SDS011;7231;59.370;18.016;2023-03-30T12:43:48;1.80;;;0.80;;
14294;SDS011;7231;59.370;18.016;2023-03-30T12:46:29;4.30;;;1.20;;
14294;SDS011;7231;59.370;18.016;2023-03-30T12:49:05;1.20;;;0.77;;
14294;SDS011;7231;59.370;18.016;2023-03-30T12:51:48;2.80;;;1.00;;
14294;SDS011;7231;59.370;18.016;2023-03-30T12:54:41;3.43;;;1.00;;
14294;SDS011;7231;59.370;18.016;2023-03-30T12:57:27;2.93;;;1.20;;
14294;SDS011;7231;59.370;18.016;2023-03-30T13:02:59;2.57;;;0.80;;
14294;SDS011;7231;59.370;18.016;2023-03-30T13:05:48;2.73;;;1.13;;
14294;SDS011;7231;59.370;18.016;2023-03-30T13:08:20;2.60;;;1.10;;
14294;SDS011;7231;59.370;18.016;2023-03-30T13:11:07;1.03;;;0.90;;
14294;SDS011;7231;59.370;18.016;2023-03-30T13:13:45;1.70;;;0.90;;
14294;SDS011;7231;59.370;18.016;2023-03-30T13:22:58;1.57;;;1.00;;
14294;SDS011;7231;59.370;18.016;2023-03-30T13:25:42;3.40;;;1.20;;
14294;SDS011;7231;59.370;18.016;2023-03-30T13:31:15;4.67;;;0.80;;
14294;SDS011;7231;59.370;18.016;2023-03-30T13:33:53;2.63;;;0.90;;
14294;SDS011;7231;59.370;18.016;2023-03-30T13:36:29;1.47;;;1.00;;
14294;SDS011;7231;59.370;18.016;2023-03-30T13:39:03;2.13;;;0.93;;
14294;SDS011;7231;59.370;18.016;2023-03-30T13:41:44;0.97;;;0.80;;
14294;SDS011;7231;59.370;18.016;2023-03-30T13:44:22;4.30;;;0.87;;
14294;SDS011;7231;59.370;18.016;2023-03-30T13:47:06;1.20;;;0.80;;
14294;SDS011;7231;59.370;18.016;2023-03-30T13:49:50;1.73;;;1.10;;
14294;SDS011;7231;59.370;18.016;2023-03-30T13:52:29;1.63;;;0.90;;
14294;SDS011;7231;59.370;18.016;2023-03-30T13:55:04;1.57;;;0.90;;
14294;SDS011;7231;59.370;18.016;2023-03-30T13:57:41;2.33;;;0.80;;
14294;SDS011;7231;59.370;18.016;2023-03-30T14:00:19;2.23;;;0.97;;
14294;SDS011;7231;59.370;18.016;2023-03-30T14:02:58;2.73;;;1.10;;
14294;SDS011;7231;59.370;18.016;2023-03-30T14:05:43;3.43;;;1.20;;
14294;SDS011;7231;59.370;18.016;2023-03-30T14:08:11;4.13;;;1.27;;
14294;SDS011;7231;59.370;18.016;2023-03-30T14:10:39;1.53;;;1.03;;
14294;SDS011;7231;59.370;18.016;2023-03-30T14:13:08;4.77;;;1.87;;
14294;SDS011;7231;59.370;18.016;2023-03-30T14:15:43;1.57;;;0.97;;
14294;SDS011;7231;59.370;18.016;2023-03-30T14:18:12;4.47;;;1.07;;
14294;SDS011;7231;59.370;18.016;2023-03-30T14:20:51;2.37;;;0.90;;
14294;SDS011;7231;59.370;18.016;2023-03-30T14:23:25;1.67;;;1.20;;
14294;SDS011;7231;59.370;18.016;2023-03-30T14:26:00;2.13;;;1.10;;
14294;SDS011;7231;59.370;18.016;2023-03-30T14:28:32;2.07;;;0.90;;
14294;SDS011;7231;59.370;18.016;2023-03-30T14:31:08;1.80;;;1.00;;
14294;SDS011;7231;59.370;18.016;2023-03-30T14:33:39;2.00;;;1.10;;
14294;SDS011;7231;59.370;18.016;2023-03-30T14:36:09;1.77;;;1.00;;
14294;SDS011;7231;59.370;18.016;2023-03-30T14:38:38;1.87;;;1.20;;
14294;SDS011;7231;59.370;18.016;2023-03-30T14:41:09;2.03;;;0.87;;
14294;SDS011;7231;59.370;18.016;2023-03-30T14:43:41;3.50;;;1.37;;
14294;SDS011;7231;59.370;18.016;2023-03-30T14:46:16;3.97;;;1.20;;
14294;SDS011;7231;59.370;18.016;2023-03-30T14:48:45;2.67;;;1.17;;
14294;SDS011;7231;59.370;18.016;2023-03-30T14:51:25;2.30;;;1.33;;
14294;SDS011;7231;59.370;18.016;2023-03-30T14:53:55;2.40;;;0.93;;
14294;SDS011;7231;59.370;18.016;2023-03-30T14:56:25;2.97;;;1.00;;
14294;SDS011;7231;59.370;18.016;2023-03-30T14:58:55;1.53;;;1.10;;
14294;SDS011;7231;59.370;18.016;2023-03-30T15:01:25;2.73;;;1.00;;
14294;SDS011;7231;59.370;18.016;2023-03-30T15:03:58;2.20;;;1.17;;
14294;SDS011;7231;59.370;18.016;2023-03-30T15:06:29;1.07;;;0.83;;
14294;SDS011;7231;59.370;18.016;2023-03-30T15:08:59;3.00;;;0.90;;
14294;SDS011;7231;59.370;18.016;2023-03-30T15:11:28;2.50;;;1.10;;
14294;SDS011;7231;59.370;18.016;2023-03-30T15:14:00;1.40;;;0.80;;
14294;SDS011;7231;59.370;18.016;2023-03-30T15:16:31;2.27;;;1.03;;
14294;SDS011;7231;59.370;18.016;2023-03-30T15:19:01;1.73;;;1.00;;
14294;SDS011;7231;59.370;18.016;2023-03-30T15:21:34;3.17;;;0.90;;
14294;SDS011;7231;59.370;18.016;2023-03-30T15:24:04;1.20;;;1.07;;
14294;SDS011;7231;59.370;18.016;2023-03-30T15:26:34;1.60;;;0.70;;
14294;SDS011;7231;59.370;18.016;2023-03-30T15:29:09;2.73;;;1.00;;
14294;SDS011;7231;59.370;18.016;2023-03-30T15:31:39;4.00;;;1.20;;
14294;SDS011;7231;59.370;18.016;2023-03-30T15:34:13;4.00;;;1.07;;
14294;SDS011;7231;59.370;18.016;2023-03-30T15:36:43;1.87;;;1.10;;
14294;SDS011;7231;59.370;18.016;2023-03-30T15:39:19;2.40;;;1.33;;
14294;SDS011;7231;59.370;18.016;2023-03-30T15:41:57;2.80;;;1.10;;
14294;SDS011;7231;59.370;18.016;2023-03-30T15:44:27;1.80;;;1.27;;
14294;SDS011;7231;59.370;18.016;2023-03-30T15:46:55;3.63;;;1.80;;